Terminal Aerodrome Forecast
Issued by NWS

Home | Current Version | Previous Version | Text Only | Print | Product List | Glossary On
Versions: 1 2 3 4 5 6 7 8 9 10 11 12 13 14 15 16 17 18 19
788
FTUS43 KJKL 200520
TAFSME
TAF
KSME 200520Z 2006/2106 00000KT 6SM BR SKC
     FM200730 00000KT 1/4SM FG SCT002
     FM201400 11004KT P6SM FEW200=

USA.gov is the U.S. government's official web portal to all federal, state and local government web resources and services.